Time;durP1;ratioP1;P1;durP2;ratioP2;P2;SDS_P1;SDS_P2;PMS_P1;PMS_P2;Temp;Humidity;BMP_temperature;BMP_pressure;BME280_temperature;BME280_humidity;BME280_pressure;Samples;Min_cycle;Max_cycle;Signal;HPM_P1;HPM_P2
2024/03/11 00:00:35;;;;;;;35.88;34.25;;;;;;;;;;4212335;28;20668;-57
2024/03/11 00:02:36;;;;;;;;;;;;;;;;;;4212639;28;20050;-57
2024/03/11 00:04:39;;;;;;;35.25;33.10;;;;;;;;;;4212491;28;19920;-58
2024/03/11 00:06:40;;;;;;;;;;;;;;;;;;4213409;28;20048;-58
2024/03/11 00:08:44;;;;;;;34.28;32.80;;;;;;;;;;4213111;28;20295;-57
2024/03/11 00:10:48;;;;;;;37.05;35.00;;;;;;;;;;4213131;28;20126;-57
2024/03/11 00:12:51;;;;;;;34.55;33.05;;;;;;;;;;4212951;28;20040;-58
2024/03/11 00:14:53;;;;;;;35.42;33.38;;;;;;;;;;4213760;28;20043;-58
2024/03/11 00:16:55;;;;;;;36.15;34.55;;;;;;;;;;4213866;28;20039;-58
2024/03/11 00:18:56;;;;;;;37.60;35.88;;;;;;;;;;4213754;28;20093;-57
2024/03/11 00:20:58;;;;;;;36.60;34.88;;;;;;;;;;4213701;28;20040;-58
2024/03/11 00:23:00;;;;;;;33.78;32.10;;;;;;;;;;4212932;28;20043;-58
2024/03/11 00:25:03;;;;;;;36.80;35.05;;;;;;;;;;4213796;28;20127;-57
2024/03/11 00:27:08;;;;;;;35.63;34.15;;;;;;;;;;4213917;28;20050;-58
2024/03/11 00:29:09;;;;;;;36.83;35.13;;;;;;;;;;4213754;28;20035;-57
2024/03/11 00:31:12;;;;;;;35.50;33.90;;;;;;;;;;4213584;28;20043;-58
2024/03/11 00:33:13;;;;;;;36.47;34.67;;;;;;;;;;4207971;28;20040;-58
2024/03/11 00:35:15;;;;;;;37.55;35.03;;;;;;;;;;4197209;28;20443;-57
2024/03/11 00:37:18;;;;;;;38.38;36.22;;;;;;;;;;4196879;28;20040;-57
2024/03/11 00:39:20;;;;;;;34.30;32.65;;;;;;;;;;4197118;28;20056;-57
2024/03/11 00:41:22;;;;;;;36.05;34.42;;;;;;;;;;4196692;28;20107;-57
2024/03/11 00:43:23;;;;;;;39.33;37.40;;;;;;;;;;4196645;28;20047;-57
2024/03/11 00:45:25;;;;;;;34.88;32.50;;;;;;;;;;4196404;28;20064;-57
2024/03/11 00:47:27;;;;;;;36.73;34.77;;;;;;;;;;4196576;28;20492;-57
2024/03/11 00:49:28;;;;;;;34.67;33.17;;;;;;;;;;4196917;28;20290;-58
2024/03/11 00:51:31;;;;;;;34.08;32.33;;;;;;;;;;4196761;28;20320;-58
2024/03/11 00:53:34;;;;;;;36.42;35.00;;;;;;;;;;4196803;28;20037;-58
2024/03/11 00:55:38;;;;;;;34.80;33.35;;;;;;;;;;4196725;28;20067;-56
2024/03/11 00:57:41;;;;;;;33.15;31.73;;;;;;;;;;4208805;28;20090;-57
2024/03/11 00:59:43;;;;;;;34.92;33.58;;;;;;;;;;4213350;28;20411;-58
2024/03/11 01:01:46;;;;;;;37.42;36.05;;;;;;;;;;4212823;28;20044;-57
2024/03/11 01:03:48;;;;;;;32.65;31.15;;;;;;;;;;4213529;28;20036;-57
2024/03/11 01:05:50;;;;;;;35.20;33.42;;;;;;;;;;4213336;28;20411;-57
2024/03/11 01:07:52;;;;;;;38.00;36.15;;;;;;;;;;4213071;28;20526;-57
2024/03/11 01:09:53;;;;;;;39.30;37.47;;;;;;;;;;4213260;28;20036;-57
2024/03/11 01:11:55;;;;;;;40.67;38.47;;;;;;;;;;4213208;28;20036;-57
2024/03/11 01:13:57;;;;;;;41.03;38.93;;;;;;;;;;4213532;28;20113;-57
2024/03/11 01:15:58;;;;;;;37.70;36.03;;;;;;;;;;4213194;28;20282;-57
2024/03/11 01:18:00;;;;;;;38.87;36.93;;;;;;;;;;4213112;28;20043;-58
2024/03/11 01:20:02;;;;;;;39.97;38.25;;;;;;;;;;4213451;28;20286;-58
2024/03/11 01:22:04;;;;;;;40.63;38.47;;;;;;;;;;4213220;28;20135;-58
2024/03/11 01:24:07;;;;;;;40.47;38.50;;;;;;;;;;4213102;28;20135;-58
2024/03/11 01:26:09;;;;;;;37.78;36.08;;;;;;;;;;4213033;28;20040;-58
2024/03/11 01:28:11;;;;;;;39.60;37.75;;;;;;;;;;4212956;28;20499;-57
2024/03/11 01:30:14;;;;;;;38.50;36.92;;;;;;;;;;4212993;28;20043;-58
2024/03/11 01:32:16;;;;;;;38.00;36.08;;;;;;;;;;4213167;28;20040;-57
2024/03/11 01:34:21;;;;;;;39.90;38.20;;;;;;;;;;4213127;28;20043;-58
2024/03/11 01:36:23;;;;;;;44.28;41.88;;;;;;;;;;4213559;28;20040;-58
2024/03/11 01:38:26;;;;;;;42.22;40.00;;;;;;;;;;4213423;28;20097;-57
2024/03/11 01:40:28;;;;;;;42.47;40.25;;;;;;;;;;4213239;28;20093;-57
2024/03/11 01:42:30;;;;;;;42.55;40.40;;;;;;;;;;4213081;28;20078;-57
2024/03/11 01:44:31;;;;;;;41.60;39.40;;;;;;;;;;4212940;28;20048;-57
2024/03/11 01:46:33;;;;;;;42.17;40.10;;;;;;;;;;4212895;28;20056;-58
2024/03/11 01:48:35;;;;;;;41.95;39.70;;;;;;;;;;4213226;28;20278;-57
2024/03/11 01:50:38;;;;;;;42.10;39.92;;;;;;;;;;4213174;28;20127;-56
2024/03/11 01:52:45;;;;;;;43.20;40.90;;;;;;;;;;4212681;28;20395;-57
2024/03/11 01:54:47;;;;;;;45.35;42.95;;;;;;;;;;4212837;28;20109;-58
2024/03/11 01:56:49;;;;;;;42.13;39.87;;;;;;;;;;4212849;28;20048;-57
2024/03/11 01:58:51;;;;;;;41.95;39.53;;;;;;;;;;4212238;28;20314;-56
2024/03/11 02:00:52;;;;;;;43.23;40.83;;;;;;;;;;4213271;28;20062;-56
2024/03/11 02:02:54;;;;;;;42.85;40.78;;;;;;;;;;4211885;22;20053;-57
2024/03/11 02:04:57;;;;;;;40.20;37.97;;;;;;;;;;4196174;28;20047;-57
2024/03/11 02:06:59;;;;;;;44.20;41.90;;;;;;;;;;4197660;28;20483;-57
2024/03/11 02:09:00;;;;;;;42.65;39.95;;;;;;;;;;4199052;28;20041;-57
2024/03/11 02:11:02;;;;;;;41.97;39.63;;;;;;;;;;4199128;28;20433;-56
2024/03/11 02:13:04;;;;;;;49.40;46.33;;;;;;;;;;4198843;28;20040;-57
2024/03/11 02:15:10;;;;;;;45.97;43.08;;;;;;;;;;4199030;28;20040;-57
2024/03/11 02:17:13;;;;;;;67.97;41.45;;;;;;;;;;4181176;28;20815;-57
2024/03/11 02:19:17;;;;;;;46.28;41.50;;;;;;;;;;4199042;28;20064;-57
2024/03/11 02:21:19;;;;;;;55.80;41.33;;;;;;;;;;4198999;28;20036;-57
2024/03/11 02:23:20;;;;;;;45.53;42.60;;;;;;;;;;4199158;28;20041;-57
2024/03/11 02:25:30;;;;;;;43.13;40.50;;;;;;;;;;4198792;28;20072;-58
2024/03/11 02:27:32;;;;;;;48.92;45.17;;;;;;;;;;4198769;28;20044;-57
2024/03/11 02:29:33;;;;;;;40.10;37.70;;;;;;;;;;4198874;28;20435;-57
2024/03/11 02:31:35;;;;;;;43.28;40.63;;;;;;;;;;4198656;28;20068;-57
2024/03/11 02:33:37;;;;;;;40.60;37.88;;;;;;;;;;4198745;28;20036;-57
2024/03/11 02:35:38;;;;;;;43.23;38.17;;;;;;;;;;4198637;28;20488;-56
2024/03/11 02:37:43;;;;;;;39.33;36.97;;;;;;;;;;4198579;28;20063;-57
2024/03/11 02:39:45;;;;;;;36.20;34.60;;;;;;;;;;4198668;28;20142;-57
2024/03/11 02:41:47;;;;;;;37.33;35.45;;;;;;;;;;4198749;28;20098;-57
2024/03/11 02:43:49;;;;;;;37.53;35.63;;;;;;;;;;4198755;28;20044;-58
2024/03/11 02:45:50;;;;;;;41.53;39.58;;;;;;;;;;4198548;28;20093;-57
2024/03/11 02:47:52;;;;;;;38.80;36.92;;;;;;;;;;4198718;28;20037;-57
2024/03/11 02:49:54;;;;;;;43.28;39.22;;;;;;;;;;4208288;28;20042;-58
2024/03/11 02:51:55;;;;;;;40.80;38.05;;;;;;;;;;4197058;28;20516;-57
2024/03/11 02:53:57;;;;;;;43.20;40.57;;;;;;;;;;4215142;28;20032;-56
2024/03/11 02:56:02;;;;;;;37.73;36.07;;;;;;;;;;4197153;28;20061;-57
2024/03/11 02:58:03;;;;;;;39.78;37.13;;;;;;;;;;4212768;28;20563;-57
2024/03/11 03:00:10;;;;;;;42.42;39.05;;;;;;;;;;4198321;28;20123;-58
2024/03/11 03:02:12;;;;;;;41.90;39.20;;;;;;;;;;4197998;28;20119;-58
2024/03/11 03:04:14;;;;;;;41.27;39.37;;;;;;;;;;4198154;28;20377;-58
2024/03/11 03:06:18;;;;;;;43.05;40.67;;;;;;;;;;4198196;28;20052;-57
2024/03/11 03:08:20;;;;;;;43.78;41.28;;;;;;;;;;4180470;28;20052;-57
2024/03/11 03:10:22;;;;;;;43.60;41.10;;;;;;;;;;4198106;28;20140;-56
2024/03/11 03:12:24;;;;;;;40.50;38.50;;;;;;;;;;4197840;28;20060;-56
2024/03/11 03:14:25;;;;;;;40.42;38.08;;;;;;;;;;4197956;28;20068;-57
2024/03/11 03:16:27;;;;;;;42.40;39.73;;;;;;;;;;4197986;28;20086;-57
2024/03/11 03:18:29;;;;;;;44.95;42.35;;;;;;;;;;4180117;28;20041;-57
2024/03/11 03:20:31;;;;;;;47.30;44.73;;;;;;;;;;4198008;28;20132;-57
2024/03/11 03:22:33;;;;;;;47.35;44.78;;;;;;;;;;4197825;28;20415;-57
2024/03/11 03:24:35;;;;;;;42.40;39.83;;;;;;;;;;4198130;28;20158;-57
2024/03/11 03:26:36;;;;;;;43.15;40.80;;;;;;;;;;4197605;28;20036;-57
2024/03/11 03:28:38;;;;;;;47.70;44.30;;;;;;;;;;4179958;28;20053;-57
2024/03/11 03:30:40;;;;;;;46.47;41.85;;;;;;;;;;4197738;28;20696;-58
2024/03/11 03:32:42;;;;;;;74.67;43.77;;;;;;;;;;4197461;28;20040;-57
2024/03/11 03:34:44;;;;;;;47.85;43.28;;;;;;;;;;4197815;28;20036;-57
2024/03/11 03:36:46;;;;;;;51.83;46.22;;;;;;;;;;4197944;28;20049;-57
2024/03/11 03:38:47;;;;;;;52.90;47.50;;;;;;;;;;4197508;28;20044;-57
2024/03/11 03:40:50;;;;;;;48.90;45.53;;;;;;;;;;4197565;28;20040;-56
2024/03/11 03:42:54;;;;;;;45.75;43.05;;;;;;;;;;4197509;28;20131;-56
2024/03/11 03:44:55;;;;;;;45.83;42.65;;;;;;;;;;4197391;28;20390;-57
2024/03/11 03:46:57;;;;;;;44.72;42.42;;;;;;;;;;4197229;28;20114;-57
2024/03/11 03:48:59;;;;;;;43.63;41.13;;;;;;;;;;4197611;28;20049;-56
2024/03/11 03:51:03;;;;;;;50.67;46.87;;;;;;;;;;4197461;28;20098;-57
2024/03/11 03:53:05;;;;;;;46.15;43.05;;;;;;;;;;4197499;28;20044;-57
2024/03/11 03:55:16;;;;;;;43.40;40.67;;;;;;;;;;4197187;28;20048;-57
2024/03/11 03:57:17;;;;;;;42.08;39.53;;;;;;;;;;4178679;28;20041;-56
2024/03/11 03:59:19;;;;;;;44.38;41.85;;;;;;;;;;4178767;28;20075;-56
2024/03/11 04:01:23;;;;;;;41.40;39.35;;;;;;;;;;4196129;28;20506;-57
2024/03/11 04:03:27;;;;;;;43.10;40.50;;;;;;;;;;4196239;28;20103;-57
2024/03/11 04:05:28;;;;;;;39.13;37.20;;;;;;;;;;4195961;28;20052;-57
2024/03/11 04:07:30;;;;;;;39.87;37.97;;;;;;;;;;4196561;28;20040;-56
2024/03/11 04:09:31;;;;;;;41.40;39.22;;;;;;;;;;4196656;28;20044;-57
2024/03/11 04:11:35;;;;;;;41.17;38.87;;;;;;;;;;4179085;28;20049;-57
2024/03/11 04:13:37;;;;;;;41.90;39.45;;;;;;;;;;4196569;28;20294;-57
2024/03/11 04:15:42;;;;;;;39.97;37.97;;;;;;;;;;4197291;28;20033;-58
2024/03/11 04:17:44;;;;;;;41.85;39.08;;;;;;;;;;4197127;28;20480;-58
2024/03/11 04:19:48;;;;;;;40.90;38.53;;;;;;;;;;4197191;28;20071;-58
2024/03/11 04:21:49;;;;;;;43.38;40.63;;;;;;;;;;4197025;28;20422;-58
2024/03/11 04:23:51;;;;;;;43.57;41.17;;;;;;;;;;4197144;28;20086;-56
2024/03/11 04:25:53;;;;;;;45.85;42.97;;;;;;;;;;4197002;28;20048;-56
2024/03/11 04:27:55;;;;;;;41.93;39.33;;;;;;;;;;4196975;28;20044;-57
2024/03/11 04:29:56;;;;;;;42.83;40.63;;;;;;;;;;4196636;28;20052;-57
2024/03/11 04:31:58;;;;;;;40.25;37.95;;;;;;;;;;4196977;28;20053;-57
2024/03/11 04:34:00;;;;;;;43.38;41.13;;;;;;;;;;4196743;28;20052;-57
2024/03/11 04:36:02;;;;;;;42.25;39.60;;;;;;;;;;4197020;28;20045;-57
2024/03/11 04:38:09;;;;;;;44.50;41.07;;;;;;;;;;4196841;28;20094;-57
2024/03/11 04:40:12;;;;;;;39.08;36.28;;;;;;;;;;4196800;28;20111;-56
2024/03/11 04:42:13;;;;;;;43.67;40.83;;;;;;;;;;4196761;28;20093;-57
2024/03/11 04:44:16;;;;;;;41.10;37.93;;;;;;;;;;4196458;28;20574;-57
2024/03/11 04:46:18;;;;;;;37.97;36.20;;;;;;;;;;4196747;28;20044;-57
2024/03/11 04:48:20;;;;;;;37.63;35.90;;;;;;;;;;4196708;28;20045;-57
2024/03/11 04:50:24;;;;;;;36.63;35.08;;;;;;;;;;4196642;28;20036;-57
2024/03/11 04:52:27;;;;;;;38.28;36.45;;;;;;;;;;4196454;28;20127;-57
2024/03/11 04:54:28;;;;;;;40.85;38.63;;;;;;;;;;4196655;28;20093;-57
2024/03/11 04:56:31;;;;;;;40.50;37.90;;;;;;;;;;4196572;28;20036;-57
2024/03/11 04:58:32;;;;;;;39.03;37.10;;;;;;;;;;4196565;28;20043;-57
2024/03/11 05:00:34;;;;;;;39.63;37.67;;;;;;;;;;4196752;28;20424;-58
2024/03/11 05:02:38;;;;;;;41.22;39.13;;;;;;;;;;4196294;28;20431;-57
2024/03/11 05:04:40;;;;;;;40.15;38.00;;;;;;;;;;4196573;28;20045;-57
2024/03/11 05:06:42;;;;;;;41.60;39.27;;;;;;;;;;4196792;28;20037;-57
2024/03/11 05:08:43;;;;;;;41.97;39.87;;;;;;;;;;4196509;28;20048;-57
2024/03/11 05:10:45;;;;;;;39.37;37.37;;;;;;;;;;4196582;28;20043;-58
2024/03/11 05:12:47;;;;;;;42.03;39.73;;;;;;;;;;4196384;28;20075;-57
2024/03/11 05:14:49;;;;;;;40.13;38.13;;;;;;;;;;4195437;28;20033;-57
2024/03/11 05:16:51;;;;;;;;;;;;;;;;;;4197086;28;20047;-56
2024/03/11 05:18:53;;;;;;;38.33;36.15;;;;;;;;;;4193557;28;19929;-57
2024/03/11 05:20:55;;;;;;;39.13;36.95;;;;;;;;;;4193183;28;20043;-58
2024/03/11 05:22:57;;;;;;;39.08;37.08;;;;;;;;;;4195843;28;20044;-58
2024/03/11 05:24:59;;;;;;;39.63;37.67;;;;;;;;;;4196511;28;20090;-57
2024/03/11 05:27:00;;;;;;;41.70;39.33;;;;;;;;;;4196521;28;20105;-57
2024/03/11 05:29:02;;;;;;;47.85;44.53;;;;;;;;;;4196498;28;20504;-58
2024/03/11 05:31:04;;;;;;;42.67;40.20;;;;;;;;;;4196648;28;20053;-58
2024/03/11 05:33:06;;;;;;;43.15;40.75;;;;;;;;;;4196236;28;20041;-57
2024/03/11 05:35:07;;;;;;;40.67;38.42;;;;;;;;;;4196364;28;20580;-57
2024/03/11 05:37:09;;;;;;;33.43;32.23;;;;;;;;;;4196295;28;20033;-57
2024/03/11 05:39:11;;;;;;;32.70;31.50;;;;;;;;;;4196455;28;20058;-58
2024/03/11 05:41:12;;;;;;;32.83;31.60;;;;;;;;;;4196756;28;20055;-57
2024/03/11 05:43:14;;;;;;;31.17;30.02;;;;;;;;;;4199437;28;20120;-57
2024/03/11 05:45:16;;;;;;;31.20;30.10;;;;;;;;;;4199225;28;20375;-57
2024/03/11 05:47:17;;;;;;;32.22;31.08;;;;;;;;;;4199352;28;20083;-58
2024/03/11 05:49:19;;;;;;;31.98;30.73;;;;;;;;;;4199777;28;20048;-58
2024/03/11 05:51:21;;;;;;;32.47;31.37;;;;;;;;;;4199403;28;20040;-58
2024/03/11 05:53:23;;;;;;;31.00;29.90;;;;;;;;;;4199264;28;20056;-58
2024/03/11 05:55:32;;;;;;;;;;;;;;;;;;4199711;28;20287;-57
2024/03/11 05:57:35;;;;;;;34.78;33.28;;;;;;;;;;4197705;28;19945;-57
2024/03/11 05:59:37;;;;;;;34.42;32.80;;;;;;;;;;4190408;28;20048;-58
2024/03/11 06:01:40;;;;;;;34.30;32.73;;;;;;;;;;4199507;28;20052;-57
2024/03/11 06:03:41;;;;;;;33.95;32.53;;;;;;;;;;4198477;28;20289;-57
2024/03/11 06:05:43;;;;;;;32.22;31.23;;;;;;;;;;4198805;28;20044;-56
2024/03/11 06:07:46;;;;;;;34.83;33.50;;;;;;;;;;4199053;28;20120;-58
2024/03/11 06:09:47;;;;;;;33.50;32.15;;;;;;;;;;4199058;28;20567;-56
2024/03/11 06:11:49;;;;;;;35.23;33.43;;;;;;;;;;4199122;28;20040;-56
2024/03/11 06:13:51;;;;;;;34.97;33.55;;;;;;;;;;4197058;28;20414;-57
2024/03/11 06:15:54;;;;;;;35.03;33.50;;;;;;;;;;4193242;28;20412;-57
2024/03/11 06:17:56;;;;;;;35.45;34.03;;;;;;;;;;4198981;28;20044;-62
2024/03/11 06:19:58;;;;;;;34.85;33.38;;;;;;;;;;4198895;28;20037;-62
2024/03/11 06:22:02;;;;;;;33.65;32.45;;;;;;;;;;4198014;28;20036;-62
2024/03/11 06:24:05;;;;;;;35.25;33.85;;;;;;;;;;4198292;28;20164;-62
2024/03/11 06:26:08;;;;;;;33.47;32.22;;;;;;;;;;4198580;28;20037;-62
2024/03/11 06:28:10;;;;;;;33.97;32.63;;;;;;;;;;4197564;28;20409;-62
2024/03/11 06:30:12;;;;;;;36.67;34.72;;;;;;;;;;4182068;28;20141;-62
2024/03/11 06:32:14;;;;;;;33.30;32.13;;;;;;;;;;4182329;28;20049;-62
2024/03/11 06:34:15;;;;;;;33.80;32.45;;;;;;;;;;4186365;28;20064;-62
2024/03/11 06:36:17;;;;;;;34.17;32.90;;;;;;;;;;4198560;28;20048;-62
2024/03/11 06:38:19;;;;;;;33.45;32.35;;;;;;;;;;4199017;28;20492;-62
2024/03/11 06:40:21;;;;;;;33.20;31.48;;;;;;;;;;4199070;28;20060;-59
2024/03/11 06:42:23;;;;;;;36.22;34.47;;;;;;;;;;4198417;28;20107;-59
2024/03/11 06:44:25;;;;;;;32.17;30.93;;;;;;;;;;4196266;28;20044;-59
2024/03/11 06:46:40;;;;;;;32.45;31.27;;;;;;;;;;4183172;28;20064;-59
2024/03/11 06:48:42;;;;;;;34.10;32.90;;;;;;;;;;4181150;28;20079;-59
2024/03/11 06:50:44;;;;;;;;;;;;;;;;;;4182309;28;20052;-60
2024/03/11 06:52:46;;;;;;;37.13;35.33;;;;;;;;;;4181165;28;20415;-59
2024/03/11 06:54:48;;;;;;;35.90;34.35;;;;;;;;;;4181893;28;20473;-59
2024/03/11 06:56:51;;;;;;;34.03;32.47;;;;;;;;;;4198232;28;20093;-59
2024/03/11 06:58:52;;;;;;;33.53;32.25;;;;;;;;;;4180648;28;20127;-59
2024/03/11 07:00:54;;;;;;;32.97;31.50;;;;;;;;;;4198233;28;20162;-59
2024/03/11 07:02:56;;;;;;;33.95;32.70;;;;;;;;;;4197179;28;20060;-59
2024/03/11 07:04:58;;;;;;;36.05;34.28;;;;;;;;;;4198013;28;20045;-59
2024/03/11 07:07:00;;;;;;;34.53;32.78;;;;;;;;;;4180240;28;20501;-60
2024/03/11 07:09:02;;;;;;;34.33;32.65;;;;;;;;;;4198049;28;20048;-59
2024/03/11 07:11:04;;;;;;;34.08;32.53;;;;;;;;;;4197842;28;20884;-59
2024/03/11 07:13:07;;;;;;;32.40;31.00;;;;;;;;;;4197745;28;20094;-60
2024/03/11 07:15:10;;;;;;;33.70;32.30;;;;;;;;;;4198200;28;20086;-59
2024/03/11 07:17:12;;;;;;;33.67;32.25;;;;;;;;;;4197876;28;20115;-59
2024/03/11 07:19:14;;;;;;;33.72;32.38;;;;;;;;;;4198150;28;20544;-59
2024/03/11 07:21:15;;;;;;;30.70;29.50;;;;;;;;;;4198025;28;20083;-60
2024/03/11 07:23:18;;;;;;;31.63;30.50;;;;;;;;;;4197954;28;20297;-60
2024/03/11 07:25:21;;;;;;;29.35;28.42;;;;;;;;;;4197903;28;20042;-59
2024/03/11 07:27:23;;;;;;;31.52;30.17;;;;;;;;;;4179905;28;20119;-59
2024/03/11 07:29:25;;;;;;;30.13;28.90;;;;;;;;;;4197981;28;20098;-59
2024/03/11 07:31:26;;;;;;;31.45;30.05;;;;;;;;;;4197838;28;20083;-59
2024/03/11 07:33:28;;;;;;;29.70;28.45;;;;;;;;;;4197711;28;20037;-59
2024/03/11 07:35:32;;;;;;;33.63;31.95;;;;;;;;;;4179712;28;20053;-59
2024/03/11 07:37:36;;;;;;;31.60;30.60;;;;;;;;;;4197527;28;20044;-59
2024/03/11 07:39:40;;;;;;;29.80;28.70;;;;;;;;;;4197666;28;20090;-60
2024/03/11 07:41:42;;;;;;;31.02;29.92;;;;;;;;;;4197457;28;20037;-59
2024/03/11 07:43:43;;;;;;;38.13;36.42;;;;;;;;;;4197509;28;20121;-60
2024/03/11 07:45:46;;;;;;;34.50;33.03;;;;;;;;;;4197354;28;20040;-59
2024/03/11 07:47:48;;;;;;;38.13;35.95;;;;;;;;;;4179673;28;20099;-59
2024/03/11 07:49:49;;;;;;;32.77;31.43;;;;;;;;;;4197669;28;20037;-62
2024/03/11 07:51:51;;;;;;;32.53;30.83;;;;;;;;;;4197248;28;20043;-63
2024/03/11 07:53:53;;;;;;;32.13;30.65;;;;;;;;;;4197402;28;20403;-62
2024/03/11 07:55:54;;;;;;;34.15;32.60;;;;;;;;;;4197381;28;20040;-62
2024/03/11 07:57:56;;;;;;;32.60;31.23;;;;;;;;;;4197295;28;20047;-62
2024/03/11 07:59:58;;;;;;;34.30;32.90;;;;;;;;;;4197396;28;20086;-62
2024/03/11 08:01:59;;;;;;;32.50;31.08;;;;;;;;;;4197042;28;20302;-62
2024/03/11 08:04:02;;;;;;;30.50;29.42;;;;;;;;;;4196387;28;20051;-62
2024/03/11 08:06:04;;;;;;;31.27;29.85;;;;;;;;;;4197126;28;20127;-62
2024/03/11 08:08:09;;;;;;;31.27;30.00;;;;;;;;;;4197547;28;20074;-62
2024/03/11 08:10:12;;;;;;;30.80;29.27;;;;;;;;;;4197248;28;20040;-62
2024/03/11 08:12:15;;;;;;;30.10;29.30;;;;;;;;;;4179266;28;20118;-62
2024/03/11 08:14:18;;;;;;;30.42;29.23;;;;;;;;;;4196873;28;20532;-62
2024/03/11 08:16:20;;;;;;;30.40;29.40;;;;;;;;;;4196995;28;20115;-62
2024/03/11 08:18:22;;;;;;;30.05;28.58;;;;;;;;;;4197028;28;20041;-63
2024/03/11 08:20:24;;;;;;;28.93;27.77;;;;;;;;;;4196889;28;20032;-62
2024/03/11 08:22:26;;;;;;;30.02;28.60;;;;;;;;;;4196884;28;20278;-62
2024/03/11 08:24:28;;;;;;;29.73;28.48;;;;;;;;;;4197074;28;20072;-62
2024/03/11 08:26:30;;;;;;;26.83;26.02;;;;;;;;;;4196735;28;20048;-62
2024/03/11 08:28:32;;;;;;;29.42;28.38;;;;;;;;;;4196877;28;20068;-62
2024/03/11 08:30:36;;;;;;;30.48;28.85;;;;;;;;;;4196883;28;20051;-62
2024/03/11 08:32:38;;;;;;;28.58;27.38;;;;;;;;;;4197354;28;20480;-62
2024/03/11 08:34:40;;;;;;;29.90;28.63;;;;;;;;;;4196751;28;20061;-62
2024/03/11 08:36:42;;;;;;;29.20;28.17;;;;;;;;;;4178915;28;20673;-62
2024/03/11 08:38:44;;;;;;;28.27;27.17;;;;;;;;;;4197022;28;20051;-62
2024/03/11 08:40:48;;;;;;;26.85;26.08;;;;;;;;;;4196895;28;20119;-62
2024/03/11 08:42:53;;;;;;;27.88;26.73;;;;;;;;;;4197038;28;20055;-62
2024/03/11 08:44:55;;;;;;;27.90;26.45;;;;;;;;;;4196449;28;20072;-62
2024/03/11 08:46:57;;;;;;;27.73;26.80;;;;;;;;;;4196619;28;20044;-63
2024/03/11 08:48:59;;;;;;;28.33;27.17;;;;;;;;;;4196575;28;20044;-62
2024/03/11 08:51:01;;;;;;;;;;;;;;;;;;4197217;28;20041;-62
2024/03/11 08:53:06;;;;;;;27.02;26.08;;;;;;;;;;4196681;28;19970;-62
2024/03/11 08:55:09;;;;;;;26.38;25.38;;;;;;;;;;4196438;28;20056;-62
2024/03/11 08:57:12;;;;;;;25.40;24.77;;;;;;;;;;4196616;28;20040;-62
2024/03/11 08:59:15;;;;;;;27.02;25.70;;;;;;;;;;4196875;28;20044;-62
2024/03/11 09:01:16;;;;;;;;;;;;;;;;;;4196966;28;20045;-63
2024/03/11 09:03:18;;;;;;;26.13;25.38;;;;;;;;;;4196427;28;19924;-62
2024/03/11 09:05:22;;;;;;;25.33;24.15;;;;;;;;;;4196830;28;20123;-62
2024/03/11 09:07:26;;;;;;;24.40;23.77;;;;;;;;;;4196762;28;20120;-62
2024/03/11 09:09:27;;;;;;;24.02;23.33;;;;;;;;;;4196536;28;20090;-63
2024/03/11 09:11:29;;;;;;;22.13;21.27;;;;;;;;;;4196345;28;20048;-63
2024/03/11 09:13:31;;;;;;;23.97;22.77;;;;;;;;;;4196342;28;20800;-62
2024/03/11 09:15:32;;;;;;;23.60;22.50;;;;;;;;;;4197350;28;20460;-62
2024/03/11 09:17:34;;;;;;;24.25;23.30;;;;;;;;;;4199882;28;20306;-63
2024/03/11 09:19:36;;;;;;;25.27;24.15;;;;;;;;;;4199766;28;20079;-62
2024/03/11 09:21:39;;;;;;;23.58;22.95;;;;;;;;;;4199761;28;20047;-63
2024/03/11 09:23:41;;;;;;;23.58;22.38;;;;;;;;;;4199570;28;20037;-62
2024/03/11 09:25:42;;;;;;;27.83;26.53;;;;;;;;;;4199784;28;20040;-62
2024/03/11 09:27:54;;;;;;;27.15;26.08;;;;;;;;;;4199629;28;20036;-62
2024/03/11 09:29:56;;;;;;;26.65;25.60;;;;;;;;;;4199699;28;20105;-63
2024/03/11 09:31:58;;;;;;;24.42;23.42;;;;;;;;;;4199621;28;20067;-62
2024/03/11 09:34:02;;;;;;;23.33;22.38;;;;;;;;;;4199521;28;20044;-63
2024/03/11 09:36:04;;;;;;;23.52;22.42;;;;;;;;;;4181683;28;20040;-62
2024/03/11 09:38:09;;;;;;;22.17;21.08;;;;;;;;;;4199726;28;20070;-63
2024/03/11 09:40:11;;;;;;;19.55;19.15;;;;;;;;;;4199529;28;20048;-62
2024/03/11 09:42:13;;;;;;;20.73;20.08;;;;;;;;;;4199309;28;20040;-62
2024/03/11 09:44:16;;;;;;;23.95;22.77;;;;;;;;;;4199245;28;20041;-62
2024/03/11 09:46:21;;;;;;;22.02;21.52;;;;;;;;;;4199563;28;20071;-62
2024/03/11 09:48:25;;;;;;;23.08;22.35;;;;;;;;;;4199396;28;20536;-63
2024/03/11 09:50:30;;;;;;;21.58;20.95;;;;;;;;;;4199324;28;20037;-63
2024/03/11 09:52:33;;;;;;;20.83;19.63;;;;;;;;;;4199220;28;20090;-63
2024/03/11 09:54:36;;;;;;;32.60;30.42;;;;;;;;;;4199178;28;20036;-62
2024/03/11 09:56:37;;;;;;;26.23;24.88;;;;;;;;;;4199432;28;20047;-62
2024/03/11 09:58:41;;;;;;;23.30;22.30;;;;;;;;;;4199113;28;20557;-62
2024/03/11 10:00:48;;;;;;;20.48;19.67;;;;;;;;;;4199191;28;20040;-63
2024/03/11 10:02:54;;;;;;;17.38;16.40;;;;;;;;;;4198909;28;20053;-63
2024/03/11 10:04:58;;;;;;;17.02;16.40;;;;;;;;;;4199338;28;20044;-63
2024/03/11 10:07:04;;;;;;;19.38;18.38;;;;;;;;;;4199045;28;20045;-63
2024/03/11 10:09:18;;;;;;;16.38;15.73;;;;;;;;;;4199515;28;20044;-63
2024/03/11 10:11:21;;;;;;;18.90;18.23;;;;;;;;;;4199311;28;20458;-62
2024/03/11 10:13:28;;;;;;;17.55;16.98;;;;;;;;;;4199254;28;20415;-63
2024/03/11 10:15:34;;;;;;;17.73;17.00;;;;;;;;;;4198585;28;20044;-62
2024/03/11 10:17:36;;;;;;;16.50;16.00;;;;;;;;;;4198789;28;20047;-63
2024/03/11 10:19:44;;;;;;;16.30;15.57;;;;;;;;;;4199197;28;20044;-62
2024/03/11 10:21:48;;;;;;;14.85;14.52;;;;;;;;;;4199285;28;20189;-62
2024/03/11 10:23:50;;;;;;;17.45;16.63;;;;;;;;;;4199045;28;20033;-63
2024/03/11 10:26:17;;;;;;;17.48;16.25;;;;;;;;;;4198959;28;20561;-62
2024/03/11 10:28:31;;;;;;;17.10;16.42;;;;;;;;;;4197980;28;20124;-62
2024/03/11 10:30:33;;;;;;;13.73;13.52;;;;;;;;;;4199109;28;20048;-63
2024/03/11 10:32:36;;;;;;;16.83;16.27;;;;;;;;;;4198890;28;20132;-63
2024/03/11 10:34:52;;;;;;;16.52;16.02;;;;;;;;;;4199130;28;20053;-62
2024/03/11 10:36:59;;;;;;;17.08;16.15;;;;;;;;;;4198843;28;20053;-63
2024/03/11 10:39:25;;;;;;;14.93;14.18;;;;;;;;;;4198938;28;20048;-63
2024/03/11 10:41:25;;;;;;;14.30;13.80;;;;;;;;;;4198465;28;20037;-63
2024/03/11 10:43:28;;;;;;;16.83;15.98;;;;;;;;;;4199469;28;20033;-63
2024/03/11 10:45:32;;;;;;;16.98;16.27;;;;;;;;;;4198251;28;20403;-63
2024/03/11 10:47:34;;;;;;;17.83;17.13;;;;;;;;;;4198282;28;20040;-63
2024/03/11 10:49:40;;;;;;;18.63;17.92;;;;;;;;;;4196918;28;20423;-63
2024/03/11 10:51:45;;;;;;;15.10;14.38;;;;;;;;;;4202495;28;20036;-62
2024/03/11 10:53:53;;;;;;;12.55;11.65;;;;;;;;;;4198072;28;20045;-62
2024/03/11 10:55:55;;;;;;;11.55;10.82;;;;;;;;;;4186909;28;20089;-63
2024/03/11 10:58:00;;;;;;;12.10;11.20;;;;;;;;;;4198278;28;20048;-63
2024/03/11 11:00:19;;;;;;;8.20;7.82;;;;;;;;;;4196586;28;20071;-63
2024/03/11 11:02:22;;;;;;;7.90;7.43;;;;;;;;;;4194349;28;20110;-63
2024/03/11 11:04:33;;;;;;;8.90;8.38;;;;;;;;;;4204219;28;20032;-63
2024/03/11 11:06:35;;;;;;;9.32;9.10;;;;;;;;;;4206549;28;20120;-63
2024/03/11 11:08:37;;;;;;;9.00;8.35;;;;;;;;;;4194617;28;20036;-63
2024/03/11 11:10:40;;;;;;;8.40;8.00;;;;;;;;;;4198105;28;20040;-63
2024/03/11 11:12:42;;;;;;;9.60;9.02;;;;;;;;;;4198205;28;20377;-64
2024/03/11 11:14:46;;;;;;;8.93;8.38;;;;;;;;;;4197119;28;20627;-63
2024/03/11 11:16:51;;;;;;;8.68;8.10;;;;;;;;;;4197587;28;20450;-64
2024/03/11 11:18:54;;;;;;;8.85;8.50;;;;;;;;;;4197571;28;20381;-63
2024/03/11 11:20:56;;;;;;;8.60;8.05;;;;;;;;;;4198236;28;20032;-59
2024/03/11 11:23:02;;;;;;;;;;;;;;;;;;4197914;28;20042;-59
2024/03/11 11:25:25;;;;;;;10.82;10.45;;;;;;;;;;4194136;28;19942;-59
2024/03/11 11:27:28;;;;;;;12.70;12.15;;;;;;;;;;4196969;28;20079;-59
2024/03/11 11:29:29;;;;;;;;;;;;;;;;;;4198433;28;20593;-59
2024/03/11 11:31:32;;;;;;;11.10;10.45;;;;;;;;;;4197659;28;19924;-59
2024/03/11 11:33:53;;;;;;;13.10;12.60;;;;;;;;;;4197681;28;20127;-59
2024/03/11 11:35:57;;;;;;;14.00;13.18;;;;;;;;;;4181369;28;20040;-59
2024/03/11 11:38:18;;;;;;;11.00;10.80;;;;;;;;;;4197106;28;20040;-59
2024/03/11 11:40:29;;;;;;;7.93;7.70;;;;;;;;;;4197459;28;20278;-60
2024/03/11 11:42:35;;;;;;;5.15;5.05;;;;;;;;;;4197898;28;20029;-60
2024/03/11 11:44:39;;;;;;;6.85;6.60;;;;;;;;;;4197606;28;20597;-59
2024/03/11 11:46:42;;;;;;;6.95;6.40;;;;;;;;;;4197776;28;20036;-60
2024/03/11 11:48:44;;;;;;;;;;;;;;;;;;4197985;28;20491;-59
2024/03/11 11:50:46;;;;;;;7.25;7.03;;;;;;;;;;4190035;28;19928;-60
2024/03/11 11:53:03;;;;;;;8.00;7.63;;;;;;;;;;4192994;28;20041;-59
2024/03/11 11:55:08;;;;;;;11.25;11.05;;;;;;;;;;4198885;28;20407;-59
2024/03/11 11:57:11;;;;;;;10.85;10.45;;;;;;;;;;4196797;28;20036;-59
2024/03/11 11:59:20;;;;;;;7.95;7.63;;;;;;;;;;4196603;28;20037;-59